sensor_id;sensor_type;location;lat;lon;timestamp;P1;durP1;ratioP1;P2;durP2;ratioP2
43670;SDS011;29267;50.906;7.248;2023-12-14T00:01:33;14.95;;;7.07;;
43670;SDS011;29267;50.906;7.248;2023-12-14T00:03:59;16.63;;;7.40;;
43670;SDS011;29267;50.906;7.248;2023-12-14T00:06:25;15.80;;;6.70;;
43670;SDS011;29267;50.906;7.248;2023-12-14T00:08:50;17.42;;;6.90;;
43670;SDS011;29267;50.906;7.248;2023-12-14T00:11:16;13.80;;;6.10;;
43670;SDS011;29267;50.906;7.248;2023-12-14T00:13:42;13.02;;;6.50;;
43670;SDS011;29267;50.906;7.248;2023-12-14T00:16:08;14.35;;;6.22;;
43670;SDS011;29267;50.906;7.248;2023-12-14T00:18:34;11.57;;;5.07;;
43670;SDS011;29267;50.906;7.248;2023-12-14T00:21:01;11.07;;;5.55;;
43670;SDS011;29267;50.906;7.248;2023-12-14T00:23:27;17.10;;;5.35;;
43670;SDS011;29267;50.906;7.248;2023-12-14T00:25:53;16.25;;;5.57;;
43670;SDS011;29267;50.906;7.248;2023-12-14T00:28:19;17.88;;;5.72;;
43670;SDS011;29267;50.906;7.248;2023-12-14T00:30:44;13.52;;;6.13;;
43670;SDS011;29267;50.906;7.248;2023-12-14T00:33:10;18.95;;;6.13;;
43670;SDS011;29267;50.906;7.248;2023-12-14T00:35:36;14.10;;;5.50;;
43670;SDS011;29267;50.906;7.248;2023-12-14T00:38:01;11.95;;;6.05;;
43670;SDS011;29267;50.906;7.248;2023-12-14T00:40:27;12.65;;;5.78;;
43670;SDS011;29267;50.906;7.248;2023-12-14T00:42:53;15.25;;;6.35;;
43670;SDS011;29267;50.906;7.248;2023-12-14T00:45:18;12.43;;;5.78;;
43670;SDS011;29267;50.906;7.248;2023-12-14T00:47:44;13.02;;;5.25;;
43670;SDS011;29267;50.906;7.248;2023-12-14T00:50:10;23.30;;;6.82;;
43670;SDS011;29267;50.906;7.248;2023-12-14T00:52:36;11.70;;;5.35;;
43670;SDS011;29267;50.906;7.248;2023-12-14T00:55:01;12.98;;;5.30;;
43670;SDS011;29267;50.906;7.248;2023-12-14T00:57:27;12.38;;;6.13;;
43670;SDS011;29267;50.906;7.248;2023-12-14T00:59:53;14.43;;;6.20;;
43670;SDS011;29267;50.906;7.248;2023-12-14T01:02:19;9.88;;;5.95;;
43670;SDS011;29267;50.906;7.248;2023-12-14T01:04:44;12.10;;;5.95;;
43670;SDS011;29267;50.906;7.248;2023-12-14T01:07:10;16.05;;;5.95;;
43670;SDS011;29267;50.906;7.248;2023-12-14T01:09:36;13.65;;;5.80;;
43670;SDS011;29267;50.906;7.248;2023-12-14T01:12:02;12.48;;;5.82;;
43670;SDS011;29267;50.906;7.248;2023-12-14T01:14:28;12.63;;;5.15;;
43670;SDS011;29267;50.906;7.248;2023-12-14T01:16:54;15.63;;;6.13;;
43670;SDS011;29267;50.906;7.248;2023-12-14T01:19:19;14.95;;;6.20;;
43670;SDS011;29267;50.906;7.248;2023-12-14T01:21:45;13.52;;;5.43;;
43670;SDS011;29267;50.906;7.248;2023-12-14T01:24:11;11.57;;;5.85;;
43670;SDS011;29267;50.906;7.248;2023-12-14T01:26:36;14.43;;;5.32;;
43670;SDS011;29267;50.906;7.248;2023-12-14T01:29:02;16.05;;;6.53;;
43670;SDS011;29267;50.906;7.248;2023-12-14T01:31:28;13.65;;;6.00;;
43670;SDS011;29267;50.906;7.248;2023-12-14T01:33:54;10.57;;;6.18;;
43670;SDS011;29267;50.906;7.248;2023-12-14T01:36:23;11.30;;;6.28;;
43670;SDS011;29267;50.906;7.248;2023-12-14T01:38:50;15.10;;;6.65;;
43670;SDS011;29267;50.906;7.248;2023-12-14T01:41:16;12.80;;;5.75;;
43670;SDS011;29267;50.906;7.248;2023-12-14T01:43:43;11.73;;;5.50;;
43670;SDS011;29267;50.906;7.248;2023-12-14T01:46:08;11.90;;;5.35;;
43670;SDS011;29267;50.906;7.248;2023-12-14T01:48:34;12.23;;;5.80;;
43670;SDS011;29267;50.906;7.248;2023-12-14T01:51:00;14.07;;;5.20;;
43670;SDS011;29267;50.906;7.248;2023-12-14T01:53:26;11.75;;;5.22;;
43670;SDS011;29267;50.906;7.248;2023-12-14T01:55:51;13.60;;;5.90;;
43670;SDS011;29267;50.906;7.248;2023-12-14T01:58:17;15.13;;;5.78;;
43670;SDS011;29267;50.906;7.248;2023-12-14T02:00:58;18.45;;;6.82;;
43670;SDS011;29267;50.906;7.248;2023-12-14T02:04:01;10.32;;;6.05;;
43670;SDS011;29267;50.906;7.248;2023-12-14T02:06:27;17.63;;;6.30;;
43670;SDS011;29267;50.906;7.248;2023-12-14T02:08:52;10.60;;;5.43;;
43670;SDS011;29267;50.906;7.248;2023-12-14T02:11:18;9.00;;;5.07;;
43670;SDS011;29267;50.906;7.248;2023-12-14T02:13:43;15.38;;;5.85;;
43670;SDS011;29267;50.906;7.248;2023-12-14T02:16:09;19.67;;;7.45;;
43670;SDS011;29267;50.906;7.248;2023-12-14T02:18:35;15.15;;;6.05;;
43670;SDS011;29267;50.906;7.248;2023-12-14T02:21:00;12.23;;;5.32;;
43670;SDS011;29267;50.906;7.248;2023-12-14T02:23:26;12.60;;;7.22;;
43670;SDS011;29267;50.906;7.248;2023-12-14T02:25:51;11.57;;;6.15;;
43670;SDS011;29267;50.906;7.248;2023-12-14T02:28:17;9.50;;;6.40;;
43670;SDS011;29267;50.906;7.248;2023-12-14T02:30:43;13.98;;;6.25;;
43670;SDS011;29267;50.906;7.248;2023-12-14T02:33:09;15.52;;;6.90;;
43670;SDS011;29267;50.906;7.248;2023-12-14T02:35:34;14.00;;;7.38;;
43670;SDS011;29267;50.906;7.248;2023-12-14T02:38:00;12.02;;;6.60;;
43670;SDS011;29267;50.906;7.248;2023-12-14T02:40:26;15.73;;;5.65;;
43670;SDS011;29267;50.906;7.248;2023-12-14T02:42:51;13.55;;;7.30;;
43670;SDS011;29267;50.906;7.248;2023-12-14T02:45:17;18.30;;;7.07;;
43670;SDS011;29267;50.906;7.248;2023-12-14T02:47:43;12.68;;;6.63;;
43670;SDS011;29267;50.906;7.248;2023-12-14T02:50:08;17.33;;;8.65;;
43670;SDS011;29267;50.906;7.248;2023-12-14T02:52:34;14.98;;;6.95;;
43670;SDS011;29267;50.906;7.248;2023-12-14T02:55:00;22.85;;;11.68;;
43670;SDS011;29267;50.906;7.248;2023-12-14T02:57:25;29.70;;;13.30;;
43670;SDS011;29267;50.906;7.248;2023-12-14T02:59:51;27.58;;;13.13;;
43670;SDS011;29267;50.906;7.248;2023-12-14T03:02:17;30.10;;;13.27;;
43670;SDS011;29267;50.906;7.248;2023-12-14T03:04:43;33.08;;;14.77;;
43670;SDS011;29267;50.906;7.248;2023-12-14T03:07:08;31.95;;;15.02;;
43670;SDS011;29267;50.906;7.248;2023-12-14T03:09:34;37.60;;;14.75;;
43670;SDS011;29267;50.906;7.248;2023-12-14T03:12:00;41.22;;;15.07;;
43670;SDS011;29267;50.906;7.248;2023-12-14T03:14:26;40.40;;;15.27;;
43670;SDS011;29267;50.906;7.248;2023-12-14T03:16:56;32.90;;;12.88;;
43670;SDS011;29267;50.906;7.248;2023-12-14T03:19:21;43.67;;;15.32;;
43670;SDS011;29267;50.906;7.248;2023-12-14T03:21:47;37.95;;;15.32;;
43670;SDS011;29267;50.906;7.248;2023-12-14T03:24:13;34.97;;;14.52;;
43670;SDS011;29267;50.906;7.248;2023-12-14T03:26:38;43.28;;;15.68;;
43670;SDS011;29267;50.906;7.248;2023-12-14T03:29:04;36.30;;;14.95;;
43670;SDS011;29267;50.906;7.248;2023-12-14T03:31:30;41.47;;;15.98;;
43670;SDS011;29267;50.906;7.248;2023-12-14T03:33:55;44.53;;;16.30;;
43670;SDS011;29267;50.906;7.248;2023-12-14T03:36:21;45.33;;;14.52;;
43670;SDS011;29267;50.906;7.248;2023-12-14T03:38:50;43.08;;;14.93;;
43670;SDS011;29267;50.906;7.248;2023-12-14T03:41:16;36.90;;;13.93;;
43670;SDS011;29267;50.906;7.248;2023-12-14T03:43:42;34.75;;;13.45;;
43670;SDS011;29267;50.906;7.248;2023-12-14T03:46:07;33.50;;;11.95;;
43670;SDS011;29267;50.906;7.248;2023-12-14T03:48:33;32.60;;;13.23;;
43670;SDS011;29267;50.906;7.248;2023-12-14T03:51:02;30.63;;;12.00;;
43670;SDS011;29267;50.906;7.248;2023-12-14T03:53:28;24.63;;;11.95;;
43670;SDS011;29267;50.906;7.248;2023-12-14T03:55:54;24.63;;;10.48;;
43670;SDS011;29267;50.906;7.248;2023-12-14T03:58:20;28.02;;;10.63;;
43670;SDS011;29267;50.906;7.248;2023-12-14T04:00:45;20.85;;;10.30;;
43670;SDS011;29267;50.906;7.248;2023-12-14T04:03:11;19.52;;;10.20;;
43670;SDS011;29267;50.906;7.248;2023-12-14T04:05:37;24.42;;;11.45;;
43670;SDS011;29267;50.906;7.248;2023-12-14T04:08:03;28.50;;;12.07;;
43670;SDS011;29267;50.906;7.248;2023-12-14T04:10:29;28.75;;;10.52;;
43670;SDS011;29267;50.906;7.248;2023-12-14T04:12:55;28.55;;;10.50;;
43670;SDS011;29267;50.906;7.248;2023-12-14T04:15:21;25.52;;;11.55;;
43670;SDS011;29267;50.906;7.248;2023-12-14T04:17:47;23.38;;;10.15;;
43670;SDS011;29267;50.906;7.248;2023-12-14T04:20:12;25.15;;;10.60;;
43670;SDS011;29267;50.906;7.248;2023-12-14T04:22:40;24.45;;;11.10;;
43670;SDS011;29267;50.906;7.248;2023-12-14T04:25:06;27.17;;;11.40;;
43670;SDS011;29267;50.906;7.248;2023-12-14T04:27:32;23.17;;;10.80;;
43670;SDS011;29267;50.906;7.248;2023-12-14T04:29:58;27.73;;;10.75;;
43670;SDS011;29267;50.906;7.248;2023-12-14T04:32:23;21.88;;;11.35;;
43670;SDS011;29267;50.906;7.248;2023-12-14T04:34:49;26.58;;;11.55;;
43670;SDS011;29267;50.906;7.248;2023-12-14T04:37:15;24.73;;;10.63;;
43670;SDS011;29267;50.906;7.248;2023-12-14T04:39:40;22.20;;;9.80;;
43670;SDS011;29267;50.906;7.248;2023-12-14T04:42:06;18.17;;;8.98;;
43670;SDS011;29267;50.906;7.248;2023-12-14T04:44:31;19.80;;;9.73;;
43670;SDS011;29267;50.906;7.248;2023-12-14T04:46:57;21.60;;;9.35;;
43670;SDS011;29267;50.906;7.248;2023-12-14T04:49:23;18.83;;;9.30;;
43670;SDS011;29267;50.906;7.248;2023-12-14T04:51:48;18.50;;;7.75;;
43670;SDS011;29267;50.906;7.248;2023-12-14T04:54:14;20.13;;;8.02;;
43670;SDS011;29267;50.906;7.248;2023-12-14T04:56:40;17.50;;;8.25;;
43670;SDS011;29267;50.906;7.248;2023-12-14T04:59:06;15.45;;;6.90;;
43670;SDS011;29267;50.906;7.248;2023-12-14T05:01:32;13.50;;;6.65;;
43670;SDS011;29267;50.906;7.248;2023-12-14T05:03:57;19.70;;;5.75;;
43670;SDS011;29267;50.906;7.248;2023-12-14T05:06:23;11.60;;;5.70;;
43670;SDS011;29267;50.906;7.248;2023-12-14T05:08:49;10.10;;;4.70;;
43670;SDS011;29267;50.906;7.248;2023-12-14T05:11:14;8.52;;;4.40;;
43670;SDS011;29267;50.906;7.248;2023-12-14T05:13:40;8.60;;;4.70;;
43670;SDS011;29267;50.906;7.248;2023-12-14T05:16:06;9.75;;;4.35;;
43670;SDS011;29267;50.906;7.248;2023-12-14T05:18:37;6.93;;;3.50;;
43670;SDS011;29267;50.906;7.248;2023-12-14T05:21:02;7.72;;;4.20;;
43670;SDS011;29267;50.906;7.248;2023-12-14T05:23:28;6.90;;;3.40;;
43670;SDS011;29267;50.906;7.248;2023-12-14T05:25:54;6.82;;;3.22;;
43670;SDS011;29267;50.906;7.248;2023-12-14T05:28:19;4.90;;;3.10;;
43670;SDS011;29267;50.906;7.248;2023-12-14T05:30:45;5.63;;;2.45;;
43670;SDS011;29267;50.906;7.248;2023-12-14T05:33:11;4.88;;;2.65;;
43670;SDS011;29267;50.906;7.248;2023-12-14T05:35:36;6.63;;;3.08;;
43670;SDS011;29267;50.906;7.248;2023-12-14T05:38:02;5.15;;;3.10;;
43670;SDS011;29267;50.906;7.248;2023-12-14T05:40:27;6.70;;;3.15;;
43670;SDS011;29267;50.906;7.248;2023-12-14T05:42:53;6.00;;;3.33;;
43670;SDS011;29267;50.906;7.248;2023-12-14T05:45:19;4.80;;;2.75;;
43670;SDS011;29267;50.906;7.248;2023-12-14T05:47:45;6.53;;;3.17;;
43670;SDS011;29267;50.906;7.248;2023-12-14T05:50:11;8.43;;;4.65;;
43670;SDS011;29267;50.906;7.248;2023-12-14T05:52:37;6.13;;;3.50;;
43670;SDS011;29267;50.906;7.248;2023-12-14T05:55:04;10.93;;;3.72;;
43670;SDS011;29267;50.906;7.248;2023-12-14T05:57:29;7.20;;;3.88;;
43670;SDS011;29267;50.906;7.248;2023-12-14T05:59:55;7.72;;;4.07;;
43670;SDS011;29267;50.906;7.248;2023-12-14T06:02:22;8.00;;;4.45;;
43670;SDS011;29267;50.906;7.248;2023-12-14T06:04:47;8.55;;;4.38;;
43670;SDS011;29267;50.906;7.248;2023-12-14T06:07:16;10.07;;;4.28;;
43670;SDS011;29267;50.906;7.248;2023-12-14T06:09:42;12.70;;;4.75;;
43670;SDS011;29267;50.906;7.248;2023-12-14T06:12:07;11.82;;;5.03;;
43670;SDS011;29267;50.906;7.248;2023-12-14T06:14:33;8.63;;;4.22;;
43670;SDS011;29267;50.906;7.248;2023-12-14T06:16:59;8.50;;;4.22;;
43670;SDS011;29267;50.906;7.248;2023-12-14T06:19:24;7.15;;;4.13;;
43670;SDS011;29267;50.906;7.248;2023-12-14T06:21:50;9.93;;;4.75;;
43670;SDS011;29267;50.906;7.248;2023-12-14T06:24:15;8.23;;;4.57;;
43670;SDS011;29267;50.906;7.248;2023-12-14T06:26:41;8.00;;;4.18;;
43670;SDS011;29267;50.906;7.248;2023-12-14T06:29:08;9.65;;;4.85;;
43670;SDS011;29267;50.906;7.248;2023-12-14T06:31:34;10.10;;;5.80;;
43670;SDS011;29267;50.906;7.248;2023-12-14T06:33:59;11.02;;;5.43;;
43670;SDS011;29267;50.906;7.248;2023-12-14T06:36:28;12.13;;;6.25;;
43670;SDS011;29267;50.906;7.248;2023-12-14T06:38:54;14.30;;;7.22;;
43670;SDS011;29267;50.906;7.248;2023-12-14T06:41:23;15.88;;;6.93;;
43670;SDS011;29267;50.906;7.248;2023-12-14T06:43:50;16.52;;;6.88;;
43670;SDS011;29267;50.906;7.248;2023-12-14T06:46:17;14.30;;;6.38;;
43670;SDS011;29267;50.906;7.248;2023-12-14T06:48:42;16.40;;;7.07;;
43670;SDS011;29267;50.906;7.248;2023-12-14T06:51:08;14.30;;;6.85;;
43670;SDS011;29267;50.906;7.248;2023-12-14T06:53:34;15.15;;;7.35;;
43670;SDS011;29267;50.906;7.248;2023-12-14T06:56:00;14.52;;;7.70;;
43670;SDS011;29267;50.906;7.248;2023-12-14T06:58:26;16.00;;;8.10;;
43670;SDS011;29267;50.906;7.248;2023-12-14T07:00:52;17.92;;;8.38;;
43670;SDS011;29267;50.906;7.248;2023-12-14T07:03:17;21.10;;;8.55;;
43670;SDS011;29267;50.906;7.248;2023-12-14T07:05:43;15.65;;;7.45;;
43670;SDS011;29267;50.906;7.248;2023-12-14T07:08:09;16.38;;;7.30;;
43670;SDS011;29267;50.906;7.248;2023-12-14T07:10:34;14.38;;;6.65;;
43670;SDS011;29267;50.906;7.248;2023-12-14T07:13:00;18.80;;;7.68;;
43670;SDS011;29267;50.906;7.248;2023-12-14T07:15:25;17.00;;;7.45;;
43670;SDS011;29267;50.906;7.248;2023-12-14T07:17:51;16.30;;;7.70;;
43670;SDS011;29267;50.906;7.248;2023-12-14T07:20:16;14.73;;;6.80;;
43670;SDS011;29267;50.906;7.248;2023-12-14T07:22:42;16.63;;;7.82;;
43670;SDS011;29267;50.906;7.248;2023-12-14T07:25:08;17.48;;;8.00;;
43670;SDS011;29267;50.906;7.248;2023-12-14T07:27:33;17.15;;;8.02;;
43670;SDS011;29267;50.906;7.248;2023-12-14T07:29:59;21.40;;;8.43;;
43670;SDS011;29267;50.906;7.248;2023-12-14T07:32:25;20.40;;;8.60;;
43670;SDS011;29267;50.906;7.248;2023-12-14T07:34:51;14.82;;;7.72;;
43670;SDS011;29267;50.906;7.248;2023-12-14T07:37:17;20.75;;;7.82;;
43670;SDS011;29267;50.906;7.248;2023-12-14T07:39:43;22.33;;;8.63;;
43670;SDS011;29267;50.906;7.248;2023-12-14T07:42:08;23.20;;;10.52;;
43670;SDS011;29267;50.906;7.248;2023-12-14T07:44:34;21.10;;;9.85;;
43670;SDS011;29267;50.906;7.248;2023-12-14T07:47:00;21.65;;;10.63;;
43670;SDS011;29267;50.906;7.248;2023-12-14T07:49:27;28.52;;;10.55;;
43670;SDS011;29267;50.906;7.248;2023-12-14T07:51:53;21.80;;;9.95;;
43670;SDS011;29267;50.906;7.248;2023-12-14T07:54:18;25.70;;;11.50;;
43670;SDS011;29267;50.906;7.248;2023-12-14T07:56:44;28.45;;;11.98;;
43670;SDS011;29267;50.906;7.248;2023-12-14T07:59:10;28.88;;;12.30;;
43670;SDS011;29267;50.906;7.248;2023-12-14T08:01:36;29.67;;;13.20;;
43670;SDS011;29267;50.906;7.248;2023-12-14T08:04:02;30.63;;;13.10;;
43670;SDS011;29267;50.906;7.248;2023-12-14T08:06:29;27.83;;;12.95;;
43670;SDS011;29267;50.906;7.248;2023-12-14T08:08:55;29.63;;;14.13;;
43670;SDS011;29267;50.906;7.248;2023-12-14T08:11:23;26.35;;;13.05;;
43670;SDS011;29267;50.906;7.248;2023-12-14T08:13:49;26.98;;;11.88;;
43670;SDS011;29267;50.906;7.248;2023-12-14T08:16:15;27.40;;;12.63;;
43670;SDS011;29267;50.906;7.248;2023-12-14T08:18:42;25.88;;;11.23;;
43670;SDS011;29267;50.906;7.248;2023-12-14T08:21:10;22.13;;;11.60;;
43670;SDS011;29267;50.906;7.248;2023-12-14T08:23:36;29.50;;;10.32;;
43670;SDS011;29267;50.906;7.248;2023-12-14T08:26:02;22.38;;;10.30;;
43670;SDS011;29267;50.906;7.248;2023-12-14T08:28:27;25.23;;;11.65;;
43670;SDS011;29267;50.906;7.248;2023-12-14T08:30:53;26.13;;;11.27;;
43670;SDS011;29267;50.906;7.248;2023-12-14T08:33:19;26.63;;;11.77;;
43670;SDS011;29267;50.906;7.248;2023-12-14T08:35:44;28.98;;;11.85;;
43670;SDS011;29267;50.906;7.248;2023-12-14T08:38:10;25.40;;;10.95;;
43670;SDS011;29267;50.906;7.248;2023-12-14T08:40:36;29.15;;;11.77;;
43670;SDS011;29267;50.906;7.248;2023-12-14T08:43:02;24.50;;;11.85;;
43670;SDS011;29267;50.906;7.248;2023-12-14T08:45:35;25.25;;;11.90;;
43670;SDS011;29267;50.906;7.248;2023-12-14T08:48:00;28.45;;;12.27;;
43670;SDS011;29267;50.906;7.248;2023-12-14T08:50:26;22.65;;;9.75;;
43670;SDS011;29267;50.906;7.248;2023-12-14T08:52:51;24.75;;;10.30;;
43670;SDS011;29267;50.906;7.248;2023-12-14T08:55:17;22.23;;;10.23;;
43670;SDS011;29267;50.906;7.248;2023-12-14T08:57:43;21.23;;;10.65;;
43670;SDS011;29267;50.906;7.248;2023-12-14T09:00:09;23.48;;;10.32;;
43670;SDS011;29267;50.906;7.248;2023-12-14T09:02:35;21.98;;;10.35;;
43670;SDS011;29267;50.906;7.248;2023-12-14T09:05:01;20.85;;;10.50;;
43670;SDS011;29267;50.906;7.248;2023-12-14T09:07:27;24.08;;;9.80;;
43670;SDS011;29267;50.906;7.248;2023-12-14T09:09:53;20.70;;;10.05;;
43670;SDS011;29267;50.906;7.248;2023-12-14T09:12:19;21.30;;;10.50;;
43670;SDS011;29267;50.906;7.248;2023-12-14T09:14:44;23.42;;;11.32;;
43670;SDS011;29267;50.906;7.248;2023-12-14T09:17:10;21.75;;;10.13;;
43670;SDS011;29267;50.906;7.248;2023-12-14T09:19:35;22.38;;;10.32;;
43670;SDS011;29267;50.906;7.248;2023-12-14T09:22:01;22.85;;;11.48;;
43670;SDS011;29267;50.906;7.248;2023-12-14T09:24:27;25.83;;;11.75;;
43670;SDS011;29267;50.906;7.248;2023-12-14T09:26:53;24.77;;;10.02;;
43670;SDS011;29267;50.906;7.248;2023-12-14T09:29:19;28.70;;;11.63;;
43670;SDS011;29267;50.906;7.248;2023-12-14T09:31:46;27.35;;;11.27;;
43670;SDS011;29267;50.906;7.248;2023-12-14T09:34:12;21.38;;;11.35;;
43670;SDS011;29267;50.906;7.248;2023-12-14T09:36:38;26.17;;;11.13;;
43670;SDS011;29267;50.906;7.248;2023-12-14T09:39:04;29.35;;;11.65;;
43670;SDS011;29267;50.906;7.248;2023-12-14T09:41:30;24.42;;;10.85;;
43670;SDS011;29267;50.906;7.248;2023-12-14T09:43:56;28.88;;;10.82;;
43670;SDS011;29267;50.906;7.248;2023-12-14T09:46:24;21.10;;;10.15;;
43670;SDS011;29267;50.906;7.248;2023-12-14T09:48:52;24.05;;;9.75;;
43670;SDS011;29267;50.906;7.248;2023-12-14T09:51:19;27.88;;;11.85;;
43670;SDS011;29267;50.906;7.248;2023-12-14T09:53:45;18.95;;;9.38;;
43670;SDS011;29267;50.906;7.248;2023-12-14T09:56:11;25.95;;;9.20;;
43670;SDS011;29267;50.906;7.248;2023-12-14T09:58:36;18.35;;;8.68;;
43670;SDS011;29267;50.906;7.248;2023-12-14T10:01:02;27.20;;;9.75;;
43670;SDS011;29267;50.906;7.248;2023-12-14T10:03:29;25.30;;;9.57;;
43670;SDS011;29267;50.906;7.248;2023-12-14T10:05:57;24.73;;;10.00;;
43670;SDS011;29267;50.906;7.248;2023-12-14T10:08:23;29.25;;;10.88;;
43670;SDS011;29267;50.906;7.248;2023-12-14T10:10:51;29.15;;;10.95;;
43670;SDS011;29267;50.906;7.248;2023-12-14T10:13:18;25.63;;;10.93;;
43670;SDS011;29267;50.906;7.248;2023-12-14T10:15:45;24.85;;;9.70;;
43670;SDS011;29267;50.906;7.248;2023-12-14T10:18:12;30.05;;;11.07;;
43670;SDS011;29267;50.906;7.248;2023-12-14T10:20:47;22.63;;;9.82;;
43670;SDS011;29267;50.906;7.248;2023-12-14T10:23:12;25.13;;;10.57;;
43670;SDS011;29267;50.906;7.248;2023-12-14T10:25:38;20.55;;;10.18;;
43670;SDS011;29267;50.906;7.248;2023-12-14T10:28:03;26.77;;;11.00;;
43670;SDS011;29267;50.906;7.248;2023-12-14T10:30:29;28.02;;;11.32;;
43670;SDS011;29267;50.906;7.248;2023-12-14T10:32:56;32.05;;;11.40;;
43670;SDS011;29267;50.906;7.248;2023-12-14T10:35:22;26.73;;;10.75;;
43670;SDS011;29267;50.906;7.248;2023-12-14T10:37:49;27.63;;;12.45;;
43670;SDS011;29267;50.906;7.248;2023-12-14T10:40:16;23.88;;;10.57;;
43670;SDS011;29267;50.906;7.248;2023-12-14T10:42:43;27.85;;;11.35;;
43670;SDS011;29267;50.906;7.248;2023-12-14T10:45:12;32.38;;;14.38;;
43670;SDS011;29267;50.906;7.248;2023-12-14T10:47:48;36.10;;;15.18;;
43670;SDS011;29267;50.906;7.248;2023-12-14T10:50:15;32.65;;;13.77;;
43670;SDS011;29267;50.906;7.248;2023-12-14T10:52:42;41.05;;;15.93;;
43670;SDS011;29267;50.906;7.248;2023-12-14T10:55:09;37.60;;;13.82;;
43670;SDS011;29267;50.906;7.248;2023-12-14T10:57:41;46.25;;;17.17;;
43670;SDS011;29267;50.906;7.248;2023-12-14T11:00:06;50.95;;;17.98;;
43670;SDS011;29267;50.906;7.248;2023-12-14T11:02:45;47.22;;;17.75;;
43670;SDS011;29267;50.906;7.248;2023-12-14T11:05:11;45.95;;;16.73;;
43670;SDS011;29267;50.906;7.248;2023-12-14T11:07:54;50.45;;;18.10;;
43670;SDS011;29267;50.906;7.248;2023-12-14T11:10:21;40.60;;;15.07;;
43670;SDS011;29267;50.906;7.248;2023-12-14T11:15:36;42.80;;;17.60;;
43670;SDS011;29267;50.906;7.248;2023-12-14T11:26:02;38.85;;;15.80;;
43670;SDS011;29267;50.906;7.248;2023-12-14T11:28:35;50.17;;;16.83;;
43670;SDS011;29267;50.906;7.248;2023-12-14T11:31:02;41.60;;;17.08;;
43670;SDS011;29267;50.906;7.248;2023-12-14T11:33:34;40.35;;;17.92;;
43670;SDS011;29267;50.906;7.248;2023-12-14T11:36:00;44.17;;;16.10;;
43670;SDS011;29267;50.906;7.248;2023-12-14T11:38:28;38.47;;;16.63;;
43670;SDS011;29267;50.906;7.248;2023-12-14T11:40:55;35.70;;;15.90;;
43670;SDS011;29267;50.906;7.248;2023-12-14T11:43:20;36.17;;;15.68;;
43670;SDS011;29267;50.906;7.248;2023-12-14T11:45:46;39.83;;;15.98;;
43670;SDS011;29267;50.906;7.248;2023-12-14T11:48:12;42.33;;;16.27;;
43670;SDS011;29267;50.906;7.248;2023-12-14T11:50:39;39.53;;;16.92;;
43670;SDS011;29267;50.906;7.248;2023-12-14T11:53:06;42.60;;;17.55;;
43670;SDS011;29267;50.906;7.248;2023-12-14T11:55:34;38.17;;;16.33;;
43670;SDS011;29267;50.906;7.248;2023-12-14T11:58:01;38.72;;;15.93;;
43670;SDS011;29267;50.906;7.248;2023-12-14T12:00:29;41.13;;;16.50;;
43670;SDS011;29267;50.906;7.248;2023-12-14T12:03:08;37.13;;;15.20;;
43670;SDS011;29267;50.906;7.248;2023-12-14T12:05:43;36.17;;;15.73;;
43670;SDS011;29267;50.906;7.248;2023-12-14T12:08:11;38.15;;;16.08;;
43670;SDS011;29267;50.906;7.248;2023-12-14T12:10:38;34.92;;;14.85;;
43670;SDS011;29267;50.906;7.248;2023-12-14T12:13:08;32.33;;;14.43;;
43670;SDS011;29267;50.906;7.248;2023-12-14T12:15:37;39.30;;;16.00;;
43670;SDS011;29267;50.906;7.248;2023-12-14T12:18:05;34.00;;;14.95;;
43670;SDS011;29267;50.906;7.248;2023-12-14T12:20:31;31.58;;;14.40;;
43670;SDS011;29267;50.906;7.248;2023-12-14T12:22:57;31.40;;;14.07;;
43670;SDS011;29267;50.906;7.248;2023-12-14T12:25:23;27.73;;;12.05;;
43670;SDS011;29267;50.906;7.248;2023-12-14T12:27:49;27.88;;;12.38;;
43670;SDS011;29267;50.906;7.248;2023-12-14T12:30:15;40.00;;;14.70;;
43670;SDS011;29267;50.906;7.248;2023-12-14T12:32:41;28.83;;;13.43;;
43670;SDS011;29267;50.906;7.248;2023-12-14T12:35:07;28.52;;;13.02;;
43670;SDS011;29267;50.906;7.248;2023-12-14T12:37:33;35.70;;;15.95;;
43670;SDS011;29267;50.906;7.248;2023-12-14T12:39:59;29.88;;;13.15;;
43670;SDS011;29267;50.906;7.248;2023-12-14T12:42:24;32.75;;;13.73;;
43670;SDS011;29267;50.906;7.248;2023-12-14T12:44:50;32.33;;;13.90;;
43670;SDS011;29267;50.906;7.248;2023-12-14T12:47:16;31.10;;;15.38;;
43670;SDS011;29267;50.906;7.248;2023-12-14T12:49:42;33.03;;;14.50;;
43670;SDS011;29267;50.906;7.248;2023-12-14T12:52:08;30.73;;;14.40;;
43670;SDS011;29267;50.906;7.248;2023-12-14T12:54:34;31.55;;;14.88;;
43670;SDS011;29267;50.906;7.248;2023-12-14T12:57:00;29.05;;;13.73;;
43670;SDS011;29267;50.906;7.248;2023-12-14T12:59:25;31.35;;;14.40;;
43670;SDS011;29267;50.906;7.248;2023-12-14T13:01:51;29.55;;;13.50;;
43670;SDS011;29267;50.906;7.248;2023-12-14T13:04:20;31.55;;;15.25;;
43670;SDS011;29267;50.906;7.248;2023-12-14T13:06:49;31.08;;;14.73;;
43670;SDS011;29267;50.906;7.248;2023-12-14T13:09:15;29.67;;;14.50;;
43670;SDS011;29267;50.906;7.248;2023-12-14T13:11:44;31.27;;;14.50;;
43670;SDS011;29267;50.906;7.248;2023-12-14T13:14:11;32.35;;;13.48;;
43670;SDS011;29267;50.906;7.248;2023-12-14T13:16:36;31.10;;;15.45;;
43670;SDS011;29267;50.906;7.248;2023-12-14T13:19:03;31.98;;;15.27;;
43670;SDS011;29267;50.906;7.248;2023-12-14T13:21:31;33.38;;;13.77;;
43670;SDS011;29267;50.906;7.248;2023-12-14T13:24:00;33.28;;;15.38;;
43670;SDS011;29267;50.906;7.248;2023-12-14T13:26:27;33.50;;;16.20;;
43670;SDS011;29267;50.906;7.248;2023-12-14T13:28:52;32.53;;;14.73;;
43670;SDS011;29267;50.906;7.248;2023-12-14T13:31:18;33.38;;;15.73;;
43670;SDS011;29267;50.906;7.248;2023-12-14T13:33:48;31.83;;;14.68;;
43670;SDS011;29267;50.906;7.248;2023-12-14T13:36:15;31.00;;;14.93;;
43670;SDS011;29267;50.906;7.248;2023-12-14T13:38:41;35.75;;;16.63;;
43670;SDS011;29267;50.906;7.248;2023-12-14T13:41:10;53.67;;;22.83;;
43670;SDS011;29267;50.906;7.248;2023-12-14T13:43:36;33.70;;;15.85;;
43670;SDS011;29267;50.906;7.248;2023-12-14T13:46:01;29.65;;;15.05;;
43670;SDS011;29267;50.906;7.248;2023-12-14T13:48:28;36.25;;;15.45;;
43670;SDS011;29267;50.906;7.248;2023-12-14T13:50:54;31.83;;;14.27;;
43670;SDS011;29267;50.906;7.248;2023-12-14T13:53:20;27.83;;;13.68;;
43670;SDS011;29267;50.906;7.248;2023-12-14T13:55:46;25.45;;;13.48;;
43670;SDS011;29267;50.906;7.248;2023-12-14T13:58:13;25.95;;;11.75;;
43670;SDS011;29267;50.906;7.248;2023-12-14T14:00:39;31.88;;;10.90;;
43670;SDS011;29267;50.906;7.248;2023-12-14T14:03:05;25.30;;;11.80;;
43670;SDS011;29267;50.906;7.248;2023-12-14T14:05:31;24.65;;;12.25;;
43670;SDS011;29267;50.906;7.248;2023-12-14T14:07:57;27.25;;;12.25;;
43670;SDS011;29267;50.906;7.248;2023-12-14T14:10:23;22.67;;;11.68;;
43670;SDS011;29267;50.906;7.248;2023-12-14T14:12:49;23.48;;;12.20;;
43670;SDS011;29267;50.906;7.248;2023-12-14T14:15:15;25.63;;;12.15;;
43670;SDS011;29267;50.906;7.248;2023-12-14T14:17:41;26.50;;;12.35;;
43670;SDS011;29267;50.906;7.248;2023-12-14T14:20:07;31.45;;;13.27;;
43670;SDS011;29267;50.906;7.248;2023-12-14T14:22:34;24.42;;;12.25;;
43670;SDS011;29267;50.906;7.248;2023-12-14T14:25:02;29.25;;;14.23;;
43670;SDS011;29267;50.906;7.248;2023-12-14T14:27:30;27.50;;;12.48;;
43670;SDS011;29267;50.906;7.248;2023-12-14T14:29:56;25.65;;;10.48;;
43670;SDS011;29267;50.906;7.248;2023-12-14T14:32:21;21.10;;;9.77;;
43670;SDS011;29267;50.906;7.248;2023-12-14T14:34:47;21.45;;;10.23;;